createdAt,value
2023-03-22T00:00:24.781Z,7.47
2023-03-22T00:01:40.543Z,7.44
2023-03-22T00:02:45.917Z,7.42
2023-03-22T00:03:50.275Z,7.39
2023-03-22T00:04:55.115Z,7.36
2023-03-22T00:05:59.835Z,7.34
2023-03-22T00:07:01.461Z,7.32
2023-03-22T00:08:09.582Z,7.30
2023-03-22T00:09:12.489Z,7.28
2023-03-22T00:10:18.448Z,7.27
2023-03-22T00:11:21.015Z,7.26
2023-03-22T00:12:24.788Z,7.23
2023-03-22T00:13:26.332Z,7.21
2023-03-22T00:14:34.942Z,7.22
2023-03-22T00:15:36.439Z,7.19
2023-03-22T00:16:38.132Z,7.19
2023-03-22T00:17:42.034Z,7.19
2023-03-22T00:18:49.817Z,7.19
2023-03-22T00:19:54.416Z,7.20
2023-03-22T00:20:57.162Z,7.20
2023-03-22T00:22:01.620Z,7.21
2023-03-22T00:23:11.111Z,7.19
2023-03-22T00:24:14.532Z,7.20
2023-03-22T00:25:16.254Z,7.22
2023-03-22T00:26:22.719Z,7.22
2023-03-22T00:27:26.811Z,7.22
2023-03-22T00:28:33.031Z,7.25
2023-03-22T00:29:34.597Z,7.26
2023-03-22T00:30:36.158Z,7.27
2023-03-22T00:31:37.660Z,7.29
2023-03-22T00:32:39.366Z,7.30
2023-03-22T00:33:40.774Z,7.31
2023-03-22T00:34:43.272Z,7.35
2023-03-22T00:35:54.808Z,7.37
2023-03-22T00:36:56.483Z,7.38
2023-03-22T00:38:05.897Z,7.41
2023-03-22T00:39:09.867Z,7.44
2023-03-22T00:40:13.175Z,7.45
2023-03-22T00:41:16.339Z,7.48
2023-03-22T00:42:19.068Z,7.49
2023-03-22T00:43:24.066Z,7.50
2023-03-22T00:44:26.017Z,7.51
2023-03-22T00:45:29.300Z,7.52
2023-03-22T00:46:31.243Z,7.52
2023-03-22T00:47:32.783Z,7.55
2023-03-22T00:48:39.976Z,7.55
2023-03-22T00:49:41.367Z,7.55
2023-03-22T00:50:42.887Z,7.55
2023-03-22T00:51:54.950Z,7.53
2023-03-22T00:52:58.451Z,7.53
2023-03-22T00:53:59.945Z,7.53
2023-03-22T00:55:01.665Z,7.51
2023-03-22T00:56:05.579Z,7.50
2023-03-22T00:57:16.172Z,7.49
2023-03-22T00:58:17.725Z,7.48
2023-03-22T00:59:19.637Z,7.46
2023-03-22T01:00:21.443Z,7.46
2023-03-22T01:01:24.007Z,7.45
2023-03-22T01:02:30.387Z,7.44
2023-03-22T01:03:33.921Z,7.43
2023-03-22T01:04:36.174Z,7.42
2023-03-22T01:05:39.018Z,7.44
2023-03-22T01:06:42.246Z,7.43
2023-03-22T01:07:53.258Z,7.44
2023-03-22T01:08:55.195Z,7.44
2023-03-22T01:10:00.604Z,7.44
2023-03-22T01:11:08.517Z,7.45
2023-03-22T01:12:13.396Z,7.46
2023-03-22T01:13:17.548Z,7.47
2023-03-22T01:14:19.607Z,7.45
2023-03-22T01:15:22.557Z,7.45
2023-03-22T01:16:25.836Z,7.44
2023-03-22T01:17:27.859Z,7.44
2023-03-22T01:18:29.763Z,7.43
2023-03-22T01:19:31.439Z,7.42
2023-03-22T01:20:33.195Z,7.41
2023-03-22T01:21:34.758Z,7.40
2023-03-22T01:22:36.302Z,7.42
2023-03-22T01:23:39.142Z,7.40
2023-03-22T01:24:44.177Z,7.38
2023-03-22T01:25:46.584Z,7.38
2023-03-22T01:26:51.539Z,7.35
2023-03-22T01:27:55.365Z,7.33
2023-03-22T01:28:56.858Z,7.34
2023-03-22T01:29:59.889Z,7.33
2023-03-22T01:31:04.661Z,7.33
2023-03-22T01:32:09.311Z,7.33
2023-03-22T01:33:11.927Z,7.34
2023-03-22T01:34:14.022Z,7.34
2023-03-22T01:35:18.913Z,7.33
2023-03-22T01:36:20.796Z,7.34
2023-03-22T01:37:25.449Z,7.33
2023-03-22T01:38:29.202Z,7.32
2023-03-22T01:39:33.836Z,7.34
2023-03-22T01:40:39.992Z,7.33
2023-03-22T01:41:42.712Z,7.33
2023-03-22T01:42:55.469Z,7.32
2023-03-22T01:44:09.734Z,7.34
2023-03-22T01:45:16.585Z,7.33
2023-03-22T01:46:19.398Z,7.34
2023-03-22T01:47:20.892Z,7.34
2023-03-22T01:48:22.844Z,7.34
2023-03-22T01:49:27.791Z,7.35
2023-03-22T01:50:29.927Z,7.35
2023-03-22T01:51:32.663Z,7.35
2023-03-22T01:52:55.849Z,7.35
2023-03-22T01:54:15.751Z,7.36
2023-03-22T01:55:18.264Z,7.36
2023-03-22T01:56:25.745Z,7.36
2023-03-22T01:57:27.985Z,7.36
2023-03-22T01:58:31.604Z,7.37
2023-03-22T01:59:36.551Z,7.38
2023-03-22T02:00:52.134Z,7.38
2023-03-22T02:02:23.217Z,7.36
2023-03-22T02:03:42.591Z,7.36
2023-03-22T02:04:50.903Z,7.37
2023-03-22T02:05:54.445Z,7.37
2023-03-22T02:06:59.047Z,7.36
2023-03-22T02:08:05.162Z,7.36
2023-03-22T02:09:26.138Z,7.36
2023-03-22T02:10:30.429Z,7.35
2023-03-22T02:11:41.552Z,7.36
2023-03-22T02:13:17.619Z,7.37
2023-03-22T02:14:58.524Z,7.36
2023-03-22T02:16:40.265Z,7.37
2023-03-22T02:17:46.334Z,7.36
2023-03-22T02:18:57.742Z,7.36
2023-03-22T02:20:25.168Z,7.36
2023-03-22T02:21:36.447Z,7.37
2023-03-22T02:22:39.178Z,7.36
2023-03-22T02:23:40.611Z,7.39
2023-03-22T02:25:01.237Z,7.39
2023-03-22T02:26:19.055Z,7.42
2023-03-22T02:27:30.771Z,7.43
2023-03-22T02:28:35.104Z,7.45
2023-03-22T02:29:52.767Z,7.45
2023-03-22T02:31:06.026Z,7.47
2023-03-22T02:32:37.071Z,7.49
2023-03-22T02:33:51.689Z,7.49
2023-03-22T02:35:05.683Z,7.49
2023-03-22T02:36:16.705Z,7.50
2023-03-22T02:37:36.269Z,7.51
2023-03-22T02:38:42.482Z,7.51
2023-03-22T02:40:01.358Z,7.53
2023-03-22T02:41:11.211Z,7.53
2023-03-22T02:42:31.194Z,7.52
2023-03-22T02:43:46.214Z,7.53
2023-03-22T02:44:59.346Z,7.52
2023-03-22T02:46:07.965Z,7.52
2023-03-22T02:47:13.488Z,7.52
2023-03-22T02:48:39.281Z,7.52
2023-03-22T02:49:45.967Z,7.51
2023-03-22T02:50:52.072Z,7.52
2023-03-22T02:51:58.492Z,7.52
2023-03-22T02:53:06.655Z,7.52
2023-03-22T02:54:11.187Z,7.52
2023-03-22T02:55:15.566Z,7.52
2023-03-22T02:56:34.074Z,7.52
2023-03-22T02:57:48.578Z,7.51
2023-03-22T02:58:54.510Z,7.51
2023-03-22T02:59:58.877Z,7.51
2023-03-22T03:01:05.757Z,7.51
2023-03-22T03:02:13.059Z,7.49
2023-03-22T03:03:19.025Z,7.49
2023-03-22T03:04:22.528Z,7.51
2023-03-22T03:05:29.837Z,7.50
2023-03-22T03:06:33.503Z,7.49
2023-03-22T03:07:38.701Z,7.49
2023-03-22T03:08:41.126Z,7.47
2023-03-22T03:09:44.701Z,7.47
2023-03-22T03:10:48.157Z,7.48
2023-03-22T03:11:54.259Z,7.47
2023-03-22T03:12:56.499Z,7.46
2023-03-22T03:13:58.231Z,7.48
2023-03-22T03:14:59.819Z,7.49
2023-03-22T03:16:04.007Z,7.50
2023-03-22T03:17:11.969Z,7.50
2023-03-22T03:18:35.606Z,7.53
2023-03-22T03:19:45.865Z,7.53
2023-03-22T03:20:50.993Z,7.56
2023-03-22T03:22:07.896Z,7.57
2023-03-22T03:23:31.242Z,7.60
2023-03-22T03:24:40.032Z,7.60
2023-03-22T03:26:12.922Z,7.63
2023-03-22T03:27:22.990Z,7.65
2023-03-22T03:28:30.350Z,7.65
2023-03-22T03:29:38.022Z,7.65
2023-03-22T03:30:45.046Z,7.66
2023-03-22T03:31:57.927Z,7.66
2023-03-22T03:33:02.150Z,7.67
2023-03-22T03:34:25.648Z,7.68
2023-03-22T03:35:34.588Z,7.69
2023-03-22T03:36:39.414Z,7.70
2023-03-22T03:37:47.310Z,7.72
2023-03-22T03:38:54.509Z,7.73
2023-03-22T03:40:01.357Z,7.74
2023-03-22T03:41:22.341Z,7.75
2023-03-22T03:42:29.888Z,7.77
2023-03-22T03:43:32.513Z,7.77
2023-03-22T03:44:36.097Z,7.79
2023-03-22T03:45:39.624Z,7.79
2023-03-22T03:46:44.072Z,7.80
2023-03-22T03:47:47.143Z,7.80
2023-03-22T03:48:52.863Z,7.82
2023-03-22T03:49:56.699Z,7.84
2023-03-22T03:51:01.407Z,7.84
2023-03-22T03:52:04.380Z,7.86
2023-03-22T03:53:06.214Z,7.87
2023-03-22T03:54:08.729Z,7.89
2023-03-22T03:55:10.388Z,7.89
2023-03-22T03:56:12.003Z,7.90
2023-03-22T03:57:19.215Z,7.90
2023-03-22T03:58:20.753Z,7.90
2023-03-22T03:59:25.546Z,7.91
2023-03-22T04:00:29.758Z,7.91
2023-03-22T04:01:50.503Z,7.92
2023-03-22T04:02:56.007Z,7.93
2023-03-22T04:04:17.011Z,7.92
2023-03-22T04:05:25.431Z,7.92
2023-03-22T04:06:31.433Z,7.91
2023-03-22T04:07:37.553Z,7.92
2023-03-22T04:08:39.130Z,7.91
2023-03-22T04:09:41.327Z,7.91
2023-03-22T04:11:02.098Z,7.92
2023-03-22T04:12:05.402Z,7.90
2023-03-22T04:13:07.696Z,7.90
2023-03-22T04:14:11.766Z,7.90
2023-03-22T04:15:13.875Z,7.90
2023-03-22T04:16:17.566Z,7.90
2023-03-22T04:17:19.096Z,7.90
2023-03-22T04:18:25.955Z,7.91
2023-03-22T04:19:29.318Z,7.90
2023-03-22T04:20:33.626Z,7.90
2023-03-22T04:21:35.348Z,7.89
2023-03-22T04:22:41.026Z,7.91
2023-03-22T04:23:43.146Z,7.90
2023-03-22T04:24:50.374Z,7.90
2023-03-22T04:25:54.747Z,7.89
2023-03-22T04:27:10.517Z,7.89
2023-03-22T04:28:33.288Z,7.89
2023-03-22T04:29:36.267Z,7.90
2023-03-22T04:30:57.826Z,7.89
2023-03-22T04:32:28.783Z,7.90
2023-03-22T04:33:35.983Z,7.90
2023-03-22T04:34:52.800Z,7.90
2023-03-22T04:35:57.326Z,7.90
2023-03-22T04:37:06.256Z,7.90
2023-03-22T04:38:12.024Z,7.88
2023-03-22T04:39:18.469Z,7.87
2023-03-22T04:40:31.695Z,7.87
2023-03-22T04:41:37.265Z,7.87
2023-03-22T04:42:39.123Z,7.86
2023-03-22T04:43:54.131Z,7.86
2023-03-22T04:44:55.586Z,7.85
2023-03-22T04:46:01.259Z,7.86
2023-03-22T04:47:11.262Z,7.86
2023-03-22T04:48:13.587Z,7.85
2023-03-22T04:49:25.335Z,7.86
2023-03-22T04:50:28.593Z,7.85
2023-03-22T04:51:34.614Z,7.87
2023-03-22T04:52:54.429Z,7.86
2023-03-22T04:53:59.770Z,7.88
2023-03-22T04:55:01.530Z,7.89
2023-03-22T04:56:10.759Z,7.90
2023-03-22T04:57:13.241Z,7.90
2023-03-22T04:58:22.282Z,7.92
2023-03-22T04:59:27.495Z,7.92
2023-03-22T05:00:30.373Z,7.92
2023-03-22T05:01:38.193Z,7.92
2023-03-22T05:02:46.072Z,7.93
2023-03-22T05:04:08.123Z,7.93
2023-03-22T05:05:11.330Z,7.95
2023-03-22T05:06:15.434Z,7.95
2023-03-22T05:07:26.143Z,7.96
2023-03-22T05:08:31.521Z,7.97
2023-03-22T05:09:34.523Z,7.97
2023-03-22T05:10:39.413Z,7.97
2023-03-22T05:11:42.816Z,7.99
2023-03-22T05:13:02.309Z,7.99
2023-03-22T05:14:09.060Z,7.99
2023-03-22T05:15:11.564Z,7.99
2023-03-22T05:16:14.250Z,7.99
2023-03-22T05:17:26.554Z,7.99
2023-03-22T05:18:32.971Z,7.99
2023-03-22T05:19:34.551Z,7.98
2023-03-22T05:20:37.241Z,7.99
2023-03-22T05:22:01.815Z,7.98
2023-03-22T05:23:21.076Z,8.00
2023-03-22T05:24:26.346Z,8.00
2023-03-22T05:25:29.916Z,8.00
2023-03-22T05:26:31.418Z,8.00
2023-03-22T05:27:35.248Z,8.01
2023-03-22T05:28:59.684Z,8.02
2023-03-22T05:30:16.489Z,8.02
2023-03-22T05:31:24.606Z,8.04
2023-03-22T05:32:31.236Z,8.04
2023-03-22T05:33:34.709Z,8.06
2023-03-22T05:34:37.381Z,8.06
2023-03-22T05:35:52.764Z,8.08
2023-03-22T05:36:56.787Z,8.09
2023-03-22T05:38:09.497Z,8.10
2023-03-22T05:39:16.207Z,8.11
2023-03-22T05:40:19.335Z,8.12
2023-03-22T05:41:21.453Z,8.13
2023-03-22T05:42:22.927Z,8.12
2023-03-22T05:43:33.085Z,8.12
2023-03-22T05:44:34.769Z,8.14
2023-03-22T05:45:41.954Z,8.14
2023-03-22T05:47:02.210Z,8.16
2023-03-22T05:48:20.412Z,8.17
2023-03-22T05:49:22.545Z,8.17
2023-03-22T05:50:26.785Z,8.19
2023-03-22T05:51:30.701Z,8.21
2023-03-22T05:52:32.980Z,8.20
2023-03-22T05:53:57.465Z,8.23
2023-03-22T05:55:10.055Z,8.25
2023-03-22T05:56:15.813Z,8.26
2023-03-22T05:57:21.670Z,8.27
2023-03-22T05:58:24.424Z,8.27
2023-03-22T05:59:27.676Z,8.28
2023-03-22T06:00:34.081Z,8.28
2023-03-22T06:01:54.359Z,8.29
2023-03-22T06:03:05.204Z,8.30
2023-03-22T06:04:14.184Z,8.32
2023-03-22T06:05:36.589Z,8.33
2023-03-22T06:06:39.446Z,8.36
2023-03-22T06:08:00.952Z,8.37
2023-03-22T06:09:15.957Z,8.38
2023-03-22T06:10:20.124Z,8.41
2023-03-22T06:11:23.015Z,8.41
2023-03-22T06:12:27.173Z,8.43
2023-03-22T06:13:39.967Z,8.45
2023-03-22T06:14:42.559Z,8.45
2023-03-22T06:16:08.398Z,8.48
2023-03-22T06:17:12.113Z,8.49
2023-03-22T06:18:14.191Z,8.51
2023-03-22T06:19:24.870Z,8.53
2023-03-22T06:20:42.154Z,8.55
2023-03-22T06:21:55.791Z,8.58
2023-03-22T06:23:02.520Z,8.59
2023-03-22T06:24:06.134Z,8.60
2023-03-22T06:25:11.562Z,8.61
2023-03-22T06:26:17.513Z,8.64
2023-03-22T06:27:22.019Z,8.65
2023-03-22T06:28:23.720Z,8.66
2023-03-22T06:29:34.246Z,8.67
2023-03-22T06:30:41.569Z,8.70
2023-03-22T06:32:10.700Z,8.71
2023-03-22T06:33:13.010Z,8.72
2023-03-22T06:34:18.764Z,8.76
2023-03-22T06:35:21.919Z,8.79
2023-03-22T06:36:29.310Z,8.80
2023-03-22T06:37:40.543Z,8.83
2023-03-22T06:38:43.025Z,8.84
2023-03-22T06:39:48.133Z,8.86
2023-03-22T06:40:49.950Z,8.88
2023-03-22T06:41:53.350Z,8.89
2023-03-22T06:42:57.695Z,8.93
2023-03-22T06:44:02.621Z,8.94
2023-03-22T06:45:17.930Z,8.96
2023-03-22T06:46:20.540Z,9.00
2023-03-22T06:47:38.218Z,9.01
2023-03-22T06:48:50.967Z,9.04
2023-03-22T06:49:52.535Z,9.05
2023-03-22T06:51:01.165Z,9.07
2023-03-22T06:52:11.061Z,9.09
2023-03-22T06:53:15.290Z,9.11
2023-03-22T06:54:18.585Z,9.12
2023-03-22T06:55:22.863Z,9.14
2023-03-22T06:56:30.531Z,9.16
2023-03-22T06:57:35.879Z,9.16
2023-03-22T06:58:37.906Z,9.19
2023-03-22T06:59:42.292Z,9.19
2023-03-22T07:00:43.963Z,9.21
2023-03-22T07:01:46.132Z,9.21
2023-03-22T07:02:49.931Z,9.23
2023-03-22T07:04:01.165Z,9.24
2023-03-22T07:05:02.613Z,9.24
2023-03-22T07:06:05.509Z,9.26
2023-03-22T07:07:11.093Z,9.27
2023-03-22T07:08:12.828Z,9.27
2023-03-22T07:09:25.126Z,9.30
2023-03-22T07:10:31.431Z,9.32
2023-03-22T07:11:39.012Z,9.32
2023-03-22T07:12:40.617Z,9.34
2023-03-22T07:13:46.699Z,9.35
2023-03-22T07:14:53.207Z,9.37
2023-03-22T07:16:19.427Z,9.36
2023-03-22T07:17:38.744Z,9.36
2023-03-22T07:18:40.806Z,9.37
2023-03-22T07:19:45.785Z,9.38
2023-03-22T07:20:49.887Z,9.39
2023-03-22T07:21:51.335Z,9.39
2023-03-22T07:22:52.912Z,9.40
2023-03-22T07:24:00.916Z,9.40
2023-03-22T07:25:05.959Z,9.39
2023-03-22T07:26:10.526Z,9.40
2023-03-22T07:27:14.346Z,9.40
2023-03-22T07:28:15.873Z,9.42
2023-03-22T07:29:18.972Z,9.43
2023-03-22T07:30:22.931Z,9.44
2023-03-22T07:31:26.236Z,9.44
2023-03-22T07:32:33.883Z,9.46
2023-03-22T07:33:41.284Z,9.47
2023-03-22T07:34:45.742Z,9.47
2023-03-22T07:35:53.056Z,9.49
2023-03-22T07:36:57.809Z,9.49
2023-03-22T07:38:01.768Z,9.50
2023-03-22T07:39:06.466Z,9.51
2023-03-22T07:40:12.404Z,9.50
2023-03-22T07:41:14.198Z,9.51
2023-03-22T07:42:31.148Z,9.51
2023-03-22T07:43:58.360Z,9.54
2023-03-22T07:45:06.993Z,9.53
2023-03-22T07:46:21.842Z,9.53
2023-03-22T07:47:55.379Z,9.55
2023-03-22T07:49:17.776Z,9.58
2023-03-22T07:50:37.253Z,9.61
2023-03-22T07:51:40.987Z,9.62
2023-03-22T07:52:42.818Z,9.64
2023-03-22T07:53:46.084Z,9.66
2023-03-22T07:54:50.710Z,9.67
2023-03-22T07:55:53.040Z,9.68
2023-03-22T07:56:54.747Z,9.69
2023-03-22T07:57:56.556Z,9.70
2023-03-22T07:58:59.219Z,9.71
2023-03-22T08:00:00.979Z,9.71
2023-03-22T08:01:17.321Z,9.73
2023-03-22T08:02:31.799Z,9.74
2023-03-22T08:03:36.100Z,9.75
2023-03-22T08:04:45.054Z,9.75
2023-03-22T08:06:08.867Z,9.77
2023-03-22T08:07:14.074Z,9.78
2023-03-22T08:08:16.095Z,9.76
2023-03-22T08:09:20.176Z,9.78
2023-03-22T08:10:22.517Z,9.78
2023-03-22T08:11:26.210Z,9.79
2023-03-22T08:12:31.074Z,9.78
2023-03-22T08:13:41.024Z,9.77
2023-03-22T08:14:51.056Z,9.76
2023-03-22T08:15:56.697Z,9.77
2023-03-22T08:16:59.065Z,9.78
2023-03-22T08:18:00.656Z,9.77
2023-03-22T08:19:13.980Z,9.80
2023-03-22T08:20:19.729Z,9.79
2023-03-22T08:21:30.495Z,9.80
2023-03-22T08:22:32.948Z,9.81
2023-03-22T08:23:56.558Z,9.82
2023-03-22T08:25:16.378Z,9.82
2023-03-22T08:26:19.481Z,9.84
2023-03-22T08:27:21.538Z,9.84
2023-03-22T08:28:26.238Z,9.85
2023-03-22T08:29:34.017Z,9.84
2023-03-22T08:30:37.307Z,9.86
2023-03-22T08:31:39.499Z,9.88
2023-03-22T08:32:47.442Z,9.88
2023-03-22T08:33:51.152Z,9.91
2023-03-22T08:34:53.801Z,9.91
2023-03-22T08:36:13.651Z,9.92
2023-03-22T08:37:24.079Z,9.95
2023-03-22T08:38:31.424Z,9.97
2023-03-22T08:39:35.411Z,9.99
2023-03-22T08:41:00.077Z,10.01
2023-03-22T08:42:02.044Z,10.03
2023-03-22T08:43:07.856Z,10.04
2023-03-22T08:44:15.261Z,10.07
2023-03-22T08:45:17.003Z,10.11
2023-03-22T08:46:33.718Z,10.14
2023-03-22T08:47:37.032Z,10.19
2023-03-22T08:48:51.840Z,10.23
2023-03-22T08:50:00.149Z,10.30
2023-03-22T08:51:22.894Z,10.38
2023-03-22T08:52:42.039Z,10.46
2023-03-22T08:53:52.014Z,10.52
2023-03-22T08:55:20.026Z,10.60
2023-03-22T08:56:59.554Z,10.68
2023-03-22T08:58:22.269Z,10.75
2023-03-22T08:59:31.731Z,10.80
2023-03-22T09:00:52.637Z,10.84
2023-03-22T09:02:14.866Z,10.86
2023-03-22T09:03:17.355Z,10.90
2023-03-22T09:04:19.504Z,10.91
2023-03-22T09:05:22.595Z,10.95
2023-03-22T09:06:28.774Z,10.97
2023-03-22T09:07:34.077Z,10.99
2023-03-22T09:08:53.756Z,11.02
2023-03-22T09:09:58.683Z,11.04
2023-03-22T09:11:00.873Z,11.07
2023-03-22T09:12:07.365Z,11.10
2023-03-22T09:13:13.428Z,11.15
2023-03-22T09:14:20.409Z,11.18
2023-03-22T09:15:22.924Z,11.20
2023-03-22T09:16:41.437Z,11.22
2023-03-22T09:17:42.888Z,11.24
2023-03-22T09:18:44.794Z,11.28
2023-03-22T09:19:55.674Z,11.29
2023-03-22T09:21:07.338Z,11.33
2023-03-22T09:22:23.404Z,11.32
2023-03-22T09:23:25.364Z,11.34
2023-03-22T09:24:30.315Z,11.35
2023-03-22T09:25:35.331Z,11.36
2023-03-22T09:26:39.751Z,11.37
2023-03-22T09:27:43.028Z,11.40
2023-03-22T09:28:47.738Z,11.42
2023-03-22T09:29:51.703Z,11.45
2023-03-22T09:30:53.486Z,11.48
2023-03-22T09:31:55.665Z,11.52
2023-03-22T09:33:06.727Z,11.56
2023-03-22T09:34:08.895Z,11.60
2023-03-22T09:35:10.858Z,11.64
2023-03-22T09:36:35.986Z,11.69
2023-03-22T09:37:37.514Z,11.72
2023-03-22T09:38:41.388Z,11.74
2023-03-22T09:39:46.394Z,11.76
2023-03-22T09:41:00.422Z,11.77
2023-03-22T09:42:15.700Z,11.82
2023-03-22T09:43:21.043Z,11.86
2023-03-22T09:44:43.076Z,11.89
2023-03-22T09:45:52.320Z,11.94
2023-03-22T09:46:57.686Z,11.98
2023-03-22T09:47:59.980Z,12.04
2023-03-22T09:49:06.110Z,12.07
2023-03-22T09:50:15.829Z,12.11
2023-03-22T09:51:26.508Z,12.15
2023-03-22T09:52:31.397Z,12.19
2023-03-22T09:53:36.306Z,12.20
2023-03-22T09:54:39.236Z,12.22
2023-03-22T09:55:55.834Z,12.23
2023-03-22T09:56:57.356Z,12.25
2023-03-22T09:58:20.387Z,12.24
2023-03-22T09:59:35.041Z,12.26
2023-03-22T10:00:39.785Z,12.25
2023-03-22T10:01:46.139Z,12.26
2023-03-22T10:02:48.090Z,12.25
2023-03-22T10:04:11.534Z,12.26
2023-03-22T10:05:36.286Z,12.27
2023-03-22T10:06:40.270Z,12.27
2023-03-22T10:07:50.204Z,12.31
2023-03-22T10:08:57.436Z,12.33
2023-03-22T10:10:12.994Z,12.37
2023-03-22T10:11:23.532Z,12.42
2023-03-22T10:12:27.753Z,12.46
2023-03-22T10:13:34.201Z,12.48
2023-03-22T10:14:39.181Z,12.53
2023-03-22T10:15:42.791Z,12.56
2023-03-22T10:16:47.179Z,12.59
2023-03-22T10:17:54.842Z,12.62
2023-03-22T10:19:02.351Z,12.64
2023-03-22T10:20:10.140Z,12.68
2023-03-22T10:21:13.393Z,12.69
2023-03-22T10:22:16.241Z,12.69
2023-03-22T10:23:21.443Z,12.70
2023-03-22T10:24:33.921Z,12.71
2023-03-22T10:25:41.976Z,12.72
2023-03-22T10:26:49.819Z,12.74
2023-03-22T10:27:57.999Z,12.76
2023-03-22T10:29:05.021Z,12.79
2023-03-22T10:30:28.246Z,12.79
2023-03-22T10:31:32.619Z,12.82
2023-03-22T10:32:54.982Z,12.84
2023-03-22T10:34:02.661Z,12.87
2023-03-22T10:35:04.510Z,12.89
2023-03-22T10:36:09.344Z,12.90
2023-03-22T10:37:15.675Z,12.91
2023-03-22T10:38:21.029Z,12.90
2023-03-22T10:39:22.646Z,12.91
2023-03-22T10:40:31.616Z,12.90
2023-03-22T10:41:36.236Z,12.88
2023-03-22T10:42:40.278Z,12.88
2023-03-22T10:43:42.578Z,12.88
2023-03-22T10:44:48.994Z,12.87
2023-03-22T10:45:56.860Z,12.88
2023-03-22T10:47:00.025Z,12.90
2023-03-22T10:48:11.715Z,12.89
2023-03-22T10:49:17.553Z,12.90
2023-03-22T10:50:26.530Z,12.89
2023-03-22T10:51:30.340Z,12.89
2023-03-22T10:52:39.821Z,12.88
2023-03-22T10:53:46.927Z,12.88
2023-03-22T10:55:05.851Z,12.90
2023-03-22T10:56:20.315Z,12.92
2023-03-22T10:57:26.662Z,12.92
2023-03-22T10:58:33.895Z,12.94
2023-03-22T11:00:20.739Z,12.93
2023-03-22T11:01:40.855Z,12.97
2023-03-22T11:02:54.155Z,13.01
2023-03-22T11:04:16.978Z,13.03
2023-03-22T11:05:39.875Z,13.05
2023-03-22T11:06:56.084Z,13.09
2023-03-22T11:08:09.521Z,13.15
2023-03-22T11:09:28.108Z,13.19
2023-03-22T11:10:35.625Z,13.24
2023-03-22T11:11:51.243Z,13.27
2023-03-22T11:12:59.421Z,13.32
2023-03-22T11:14:07.066Z,13.33
2023-03-22T11:15:32.162Z,13.36
2023-03-22T11:16:52.756Z,13.36
2023-03-22T11:17:59.081Z,13.38
2023-03-22T11:19:01.566Z,13.40
2023-03-22T11:20:13.124Z,13.42
2023-03-22T11:21:16.869Z,13.42
2023-03-22T11:22:44.840Z,13.44
2023-03-22T11:23:58.459Z,13.43
2023-03-22T11:25:11.930Z,13.46
2023-03-22T11:26:15.350Z,13.46
2023-03-22T11:27:30.314Z,13.47
2023-03-22T11:28:39.593Z,13.48
2023-03-22T11:29:49.186Z,13.48
2023-03-22T11:30:59.936Z,13.49
2023-03-22T11:32:01.862Z,13.47
2023-03-22T11:33:16.915Z,13.48
2023-03-22T11:34:20.544Z,13.49
2023-03-22T11:35:29.514Z,13.47
2023-03-22T11:36:32.345Z,13.48
2023-03-22T11:37:41.392Z,13.50
2023-03-22T11:38:48.275Z,13.48
2023-03-22T11:39:50.803Z,13.49
2023-03-22T11:40:57.684Z,13.49
2023-03-22T11:42:01.792Z,13.49
2023-03-22T11:43:20.312Z,13.50
2023-03-22T11:44:22.913Z,13.50
2023-03-22T11:45:29.585Z,13.50
2023-03-22T11:46:34.429Z,13.49
2023-03-22T11:47:50.560Z,13.48
2023-03-22T11:48:53.094Z,13.48
2023-03-22T11:49:57.257Z,13.50
2023-03-22T11:51:06.857Z,13.50
2023-03-22T11:52:15.971Z,13.52
2023-03-22T11:53:22.642Z,13.54
2023-03-22T11:54:24.264Z,13.54
2023-03-22T11:55:26.328Z,13.56
2023-03-22T11:56:28.911Z,13.58
2023-03-22T11:57:33.873Z,13.60
2023-03-22T11:58:50.555Z,13.62
2023-03-22T11:59:58.584Z,13.63
2023-03-22T12:01:03.486Z,13.63
2023-03-22T12:02:05.379Z,13.64
2023-03-22T12:03:10.719Z,13.62
2023-03-22T12:04:17.769Z,13.61
2023-03-22T12:05:33.079Z,13.61
2023-03-22T12:06:39.639Z,13.61
2023-03-22T12:07:44.180Z,13.62
2023-03-22T12:09:00.464Z,13.62
2023-03-22T12:10:06.154Z,13.62
2023-03-22T12:11:14.603Z,13.64
2023-03-22T12:12:33.544Z,13.66
2023-03-22T12:13:37.562Z,13.69
2023-03-22T12:14:51.952Z,13.68
2023-03-22T12:16:02.217Z,13.68
2023-03-22T12:17:10.780Z,13.70
2023-03-22T12:18:14.741Z,13.69
2023-03-22T12:19:28.752Z,13.66
2023-03-22T12:20:35.979Z,13.63
2023-03-22T12:21:38.465Z,13.61
2023-03-22T12:22:46.944Z,13.59
2023-03-22T12:23:50.593Z,13.58
2023-03-22T12:24:52.150Z,13.58
2023-03-22T12:25:54.340Z,13.58
2023-03-22T12:27:04.846Z,13.58
2023-03-22T12:28:09.427Z,13.56
2023-03-22T12:29:21.279Z,13.56
2023-03-22T12:30:25.198Z,13.56
2023-03-22T12:31:38.292Z,13.54
2023-03-22T12:32:50.630Z,13.52
2023-03-22T12:33:54.221Z,13.50
2023-03-22T12:35:05.462Z,13.49
2023-03-22T12:36:20.582Z,13.49
2023-03-22T12:37:31.499Z,13.47
2023-03-22T12:38:48.992Z,13.49
2023-03-22T12:39:54.343Z,13.47
2023-03-22T12:40:58.029Z,13.46
2023-03-22T12:42:04.386Z,13.45
2023-03-22T12:43:14.157Z,13.44
2023-03-22T12:44:24.739Z,13.42
2023-03-22T12:45:29.465Z,13.41
2023-03-22T12:46:35.549Z,13.41
2023-03-22T12:47:45.557Z,13.40
2023-03-22T12:49:10.276Z,13.39
2023-03-22T12:50:18.007Z,13.37
2023-03-22T12:51:21.021Z,13.37
2023-03-22T12:52:37.731Z,13.34
2023-03-22T12:53:51.379Z,13.32
2023-03-22T12:54:53.651Z,13.33
2023-03-22T12:55:57.269Z,13.33
2023-03-22T12:56:58.879Z,13.34
2023-03-22T12:58:00.707Z,13.36
2023-03-22T12:59:06.470Z,13.33
2023-03-22T13:00:15.711Z,13.32
2023-03-22T13:01:23.127Z,13.32
2023-03-22T13:02:35.255Z,13.29
2023-03-22T13:03:39.217Z,13.28
2023-03-22T13:04:43.906Z,13.26
2023-03-22T13:05:48.796Z,13.23
2023-03-22T13:06:51.179Z,13.21
2023-03-22T13:07:53.892Z,13.16
2023-03-22T13:09:08.896Z,13.14
2023-03-22T13:10:36.348Z,13.12
2023-03-22T13:11:38.519Z,13.09
2023-03-22T13:13:11.760Z,13.06
2023-03-22T13:14:32.354Z,12.98
2023-03-22T13:15:41.917Z,12.95
2023-03-22T13:16:56.087Z,12.93
2023-03-22T13:17:59.098Z,12.88
2023-03-22T13:19:06.390Z,12.85
2023-03-22T13:20:09.064Z,12.83
2023-03-22T13:21:16.445Z,12.82
2023-03-22T13:22:50.457Z,12.79
2023-03-22T13:23:58.054Z,12.77
2023-03-22T13:25:19.944Z,12.74
2023-03-22T13:26:26.331Z,12.69
2023-03-22T13:27:35.826Z,12.68
2023-03-22T13:28:39.419Z,12.63
2023-03-22T13:29:43.617Z,12.62
2023-03-22T13:30:53.826Z,12.60
2023-03-22T13:31:59.465Z,12.58
2023-03-22T13:33:12.872Z,12.52
2023-03-22T13:34:21.448Z,12.48
2023-03-22T13:35:42.095Z,12.44
2023-03-22T13:36:54.993Z,12.40
2023-03-22T13:38:05.294Z,12.36
2023-03-22T13:39:12.355Z,12.33
2023-03-22T13:40:24.066Z,12.29
2023-03-22T13:41:33.596Z,12.27
2023-03-22T13:42:36.688Z,12.26
2023-03-22T13:43:52.527Z,12.21
2023-03-22T13:45:03.407Z,12.17
2023-03-22T13:46:24.491Z,12.16
2023-03-22T13:47:29.604Z,12.15
2023-03-22T13:48:41.004Z,12.15
2023-03-22T13:49:46.534Z,12.14
2023-03-22T13:50:48.704Z,12.11
2023-03-22T13:51:51.095Z,12.09
2023-03-22T13:53:06.491Z,12.08
2023-03-22T13:54:08.365Z,12.08
2023-03-22T13:55:41.499Z,12.06
2023-03-22T13:56:58.224Z,12.05
2023-03-22T13:57:59.968Z,12.04
2023-03-22T13:59:03.670Z,12.05
2023-03-22T14:00:17.737Z,12.04
2023-03-22T14:01:36.853Z,12.04
2023-03-22T14:02:43.053Z,12.04
2023-03-22T14:03:58.581Z,12.02
2023-03-22T14:05:05.188Z,12.02
2023-03-22T14:06:20.529Z,11.99
2023-03-22T14:07:34.846Z,11.96
2023-03-22T14:08:41.571Z,11.94
2023-03-22T14:09:46.588Z,11.93
2023-03-22T14:11:23.994Z,11.94
2023-03-22T14:12:32.549Z,11.94
2023-03-22T14:13:40.493Z,11.92
2023-03-22T14:14:45.180Z,11.92
2023-03-22T14:15:51.375Z,11.91
2023-03-22T14:16:58.902Z,11.88
2023-03-22T14:18:05.449Z,11.87
2023-03-22T14:19:08.643Z,11.86
2023-03-22T14:20:18.627Z,11.88
2023-03-22T14:21:39.406Z,11.88
